sensor_id;sensor_type;location;lat;lon;timestamp;P1;durP1;ratioP1;P2;durP2;ratioP2
59074;SDS011;44860;53.020;6.738;2023-11-19T00:00:34;39.60;;;22.85;;
59074;SDS011;44860;53.020;6.738;2023-11-19T00:03:00;42.63;;;22.75;;
59074;SDS011;44860;53.020;6.738;2023-11-19T00:05:26;42.22;;;23.90;;
59074;SDS011;44860;53.020;6.738;2023-11-19T00:07:52;46.80;;;24.77;;
59074;SDS011;44860;53.020;6.738;2023-11-19T00:10:18;42.58;;;23.90;;
59074;SDS011;44860;53.020;6.738;2023-11-19T00:12:45;39.08;;;22.77;;
59074;SDS011;44860;53.020;6.738;2023-11-19T00:15:12;36.72;;;22.73;;
59074;SDS011;44860;53.020;6.738;2023-11-19T00:17:38;45.88;;;24.80;;
59074;SDS011;44860;53.020;6.738;2023-11-19T00:20:11;45.42;;;24.17;;
59074;SDS011;44860;53.020;6.738;2023-11-19T00:22:40;41.80;;;24.05;;
59074;SDS011;44860;53.020;6.738;2023-11-19T00:25:09;44.65;;;24.85;;
59074;SDS011;44860;53.020;6.738;2023-11-19T00:27:35;46.72;;;24.55;;
59074;SDS011;44860;53.020;6.738;2023-11-19T00:30:02;47.47;;;24.20;;
59074;SDS011;44860;53.020;6.738;2023-11-19T00:32:34;44.03;;;24.15;;
59074;SDS011;44860;53.020;6.738;2023-11-19T00:35:01;51.05;;;25.25;;
59074;SDS011;44860;53.020;6.738;2023-11-19T00:37:27;47.47;;;24.35;;
59074;SDS011;44860;53.020;6.738;2023-11-19T00:39:53;49.95;;;25.98;;
59074;SDS011;44860;53.020;6.738;2023-11-19T00:42:21;52.28;;;25.80;;
59074;SDS011;44860;53.020;6.738;2023-11-19T00:44:47;50.10;;;24.52;;
59074;SDS011;44860;53.020;6.738;2023-11-19T00:47:13;48.55;;;24.98;;
59074;SDS011;44860;53.020;6.738;2023-11-19T00:49:38;49.42;;;24.02;;
59074;SDS011;44860;53.020;6.738;2023-11-19T00:52:05;42.80;;;22.92;;
59074;SDS011;44860;53.020;6.738;2023-11-19T00:54:31;47.88;;;22.30;;
59074;SDS011;44860;53.020;6.738;2023-11-19T00:57:00;47.05;;;21.02;;
59074;SDS011;44860;53.020;6.738;2023-11-19T00:59:26;48.30;;;19.60;;
59074;SDS011;44860;53.020;6.738;2023-11-19T01:01:53;49.05;;;18.95;;
59074;SDS011;44860;53.020;6.738;2023-11-19T01:04:19;37.80;;;17.55;;
59074;SDS011;44860;53.020;6.738;2023-11-19T01:06:45;49.15;;;17.00;;
59074;SDS011;44860;53.020;6.738;2023-11-19T01:09:10;43.10;;;14.27;;
59074;SDS011;44860;53.020;6.738;2023-11-19T01:11:36;47.15;;;14.48;;
59074;SDS011;44860;53.020;6.738;2023-11-19T01:14:02;42.83;;;13.55;;
59074;SDS011;44860;53.020;6.738;2023-11-19T01:16:27;45.10;;;11.82;;
59074;SDS011;44860;53.020;6.738;2023-11-19T01:18:53;45.30;;;12.55;;
59074;SDS011;44860;53.020;6.738;2023-11-19T01:21:19;40.08;;;11.68;;
59074;SDS011;44860;53.020;6.738;2023-11-19T01:23:45;40.70;;;11.50;;
59074;SDS011;44860;53.020;6.738;2023-11-19T01:26:11;44.25;;;11.98;;
59074;SDS011;44860;53.020;6.738;2023-11-19T01:28:38;37.13;;;11.20;;
59074;SDS011;44860;53.020;6.738;2023-11-19T01:31:14;42.25;;;11.60;;
59074;SDS011;44860;53.020;6.738;2023-11-19T01:33:40;40.42;;;9.52;;
59074;SDS011;44860;53.020;6.738;2023-11-19T01:36:07;43.30;;;10.10;;
59074;SDS011;44860;53.020;6.738;2023-11-19T01:38:33;39.65;;;9.00;;
59074;SDS011;44860;53.020;6.738;2023-11-19T01:41:00;40.10;;;8.50;;
59074;SDS011;44860;53.020;6.738;2023-11-19T01:43:34;38.80;;;7.90;;
59074;SDS011;44860;53.020;6.738;2023-11-19T01:46:02;38.78;;;7.75;;
59074;SDS011;44860;53.020;6.738;2023-11-19T01:48:29;41.58;;;6.85;;
59074;SDS011;44860;53.020;6.738;2023-11-19T01:50:57;40.60;;;7.53;;
59074;SDS011;44860;53.020;6.738;2023-11-19T01:53:24;42.40;;;7.72;;
59074;SDS011;44860;53.020;6.738;2023-11-19T01:55:50;45.83;;;7.10;;
59074;SDS011;44860;53.020;6.738;2023-11-19T01:58:17;46.17;;;7.18;;
59074;SDS011;44860;53.020;6.738;2023-11-19T02:00:44;40.60;;;7.03;;
59074;SDS011;44860;53.020;6.738;2023-11-19T02:03:10;37.50;;;7.63;;
59074;SDS011;44860;53.020;6.738;2023-11-19T02:05:37;38.03;;;6.90;;
59074;SDS011;44860;53.020;6.738;2023-11-19T02:08:03;40.00;;;7.07;;
59074;SDS011;44860;53.020;6.738;2023-11-19T02:10:29;38.85;;;6.90;;
59074;SDS011;44860;53.020;6.738;2023-11-19T02:12:57;43.28;;;7.28;;
59074;SDS011;44860;53.020;6.738;2023-11-19T02:15:23;37.78;;;6.50;;
59074;SDS011;44860;53.020;6.738;2023-11-19T02:17:51;38.08;;;6.45;;
59074;SDS011;44860;53.020;6.738;2023-11-19T02:20:17;53.10;;;7.40;;
59074;SDS011;44860;53.020;6.738;2023-11-19T02:22:45;39.42;;;6.50;;
59074;SDS011;44860;53.020;6.738;2023-11-19T02:25:33;38.17;;;6.68;;
59074;SDS011;44860;53.020;6.738;2023-11-19T02:28:00;33.58;;;5.90;;
59074;SDS011;44860;53.020;6.738;2023-11-19T02:30:27;37.45;;;6.63;;
59074;SDS011;44860;53.020;6.738;2023-11-19T02:32:54;33.83;;;6.05;;
59074;SDS011;44860;53.020;6.738;2023-11-19T02:35:27;41.15;;;6.45;;
59074;SDS011;44860;53.020;6.738;2023-11-19T02:37:56;43.70;;;6.50;;
59074;SDS011;44860;53.020;6.738;2023-11-19T02:40:22;38.10;;;6.50;;
59074;SDS011;44860;53.020;6.738;2023-11-19T02:42:54;39.47;;;6.93;;
59074;SDS011;44860;53.020;6.738;2023-11-19T02:45:23;34.60;;;6.97;;
59074;SDS011;44860;53.020;6.738;2023-11-19T02:47:50;39.13;;;7.20;;
59074;SDS011;44860;53.020;6.738;2023-11-19T02:50:17;38.78;;;6.45;;
59074;SDS011;44860;53.020;6.738;2023-11-19T02:55:16;38.65;;;7.47;;
59074;SDS011;44860;53.020;6.738;2023-11-19T02:57:43;38.10;;;6.80;;
59074;SDS011;44860;53.020;6.738;2023-11-19T03:00:17;35.53;;;6.53;;
59074;SDS011;44860;53.020;6.738;2023-11-19T03:05:35;36.75;;;6.45;;
59074;SDS011;44860;53.020;6.738;2023-11-19T03:08:00;41.03;;;7.15;;
59074;SDS011;44860;53.020;6.738;2023-11-19T03:10:26;43.15;;;7.43;;
59074;SDS011;44860;53.020;6.738;2023-11-19T03:12:52;38.78;;;7.75;;
59074;SDS011;44860;53.020;6.738;2023-11-19T03:15:17;38.92;;;7.00;;
59074;SDS011;44860;53.020;6.738;2023-11-19T03:17:43;40.67;;;7.40;;
59074;SDS011;44860;53.020;6.738;2023-11-19T03:20:10;38.88;;;6.90;;
59074;SDS011;44860;53.020;6.738;2023-11-19T03:22:40;40.75;;;6.80;;
59074;SDS011;44860;53.020;6.738;2023-11-19T03:25:09;41.35;;;6.95;;
59074;SDS011;44860;53.020;6.738;2023-11-19T03:27:38;38.47;;;6.70;;
59074;SDS011;44860;53.020;6.738;2023-11-19T03:30:07;44.63;;;7.22;;
59074;SDS011;44860;53.020;6.738;2023-11-19T03:32:36;40.70;;;8.30;;
59074;SDS011;44860;53.020;6.738;2023-11-19T03:35:03;39.75;;;6.88;;
59074;SDS011;44860;53.020;6.738;2023-11-19T03:37:32;36.85;;;7.32;;
59074;SDS011;44860;53.020;6.738;2023-11-19T03:39:57;43.97;;;6.93;;
59074;SDS011;44860;53.020;6.738;2023-11-19T03:42:27;38.95;;;6.80;;
59074;SDS011;44860;53.020;6.738;2023-11-19T03:44:56;40.38;;;6.90;;
59074;SDS011;44860;53.020;6.738;2023-11-19T03:47:22;35.67;;;6.93;;
59074;SDS011;44860;53.020;6.738;2023-11-19T03:49:49;39.10;;;6.57;;
59074;SDS011;44860;53.020;6.738;2023-11-19T03:52:15;37.17;;;6.40;;
59074;SDS011;44860;53.020;6.738;2023-11-19T03:54:41;37.28;;;6.97;;
59074;SDS011;44860;53.020;6.738;2023-11-19T03:57:07;38.20;;;6.93;;
59074;SDS011;44860;53.020;6.738;2023-11-19T03:59:32;43.10;;;7.38;;
59074;SDS011;44860;53.020;6.738;2023-11-19T04:01:58;42.13;;;7.40;;
59074;SDS011;44860;53.020;6.738;2023-11-19T04:04:26;40.25;;;6.78;;
59074;SDS011;44860;53.020;6.738;2023-11-19T04:06:55;42.03;;;7.50;;
59074;SDS011;44860;53.020;6.738;2023-11-19T04:09:21;36.35;;;6.35;;
59074;SDS011;44860;53.020;6.738;2023-11-19T04:11:47;44.65;;;6.47;;
59074;SDS011;44860;53.020;6.738;2023-11-19T04:14:13;41.75;;;8.05;;
59074;SDS011;44860;53.020;6.738;2023-11-19T04:16:40;39.85;;;6.90;;
59074;SDS011;44860;53.020;6.738;2023-11-19T04:19:05;42.83;;;7.15;;
59074;SDS011;44860;53.020;6.738;2023-11-19T04:21:31;47.75;;;7.38;;
59074;SDS011;44860;53.020;6.738;2023-11-19T04:23:58;42.83;;;7.90;;
59074;SDS011;44860;53.020;6.738;2023-11-19T04:26:23;36.17;;;6.78;;
59074;SDS011;44860;53.020;6.738;2023-11-19T04:28:49;46.50;;;7.97;;
59074;SDS011;44860;53.020;6.738;2023-11-19T04:31:15;39.63;;;6.88;;
59074;SDS011;44860;53.020;6.738;2023-11-19T04:33:41;44.80;;;8.18;;
59074;SDS011;44860;53.020;6.738;2023-11-19T04:36:08;43.38;;;7.20;;
59074;SDS011;44860;53.020;6.738;2023-11-19T04:38:34;45.55;;;7.80;;
59074;SDS011;44860;53.020;6.738;2023-11-19T04:41:00;46.42;;;8.77;;
59074;SDS011;44860;53.020;6.738;2023-11-19T04:43:26;38.33;;;7.15;;
59074;SDS011;44860;53.020;6.738;2023-11-19T04:45:52;46.53;;;7.32;;
59074;SDS011;44860;53.020;6.738;2023-11-19T04:48:17;36.25;;;7.47;;
59074;SDS011;44860;53.020;6.738;2023-11-19T04:50:43;48.53;;;7.80;;
59074;SDS011;44860;53.020;6.738;2023-11-19T04:53:09;46.33;;;8.27;;
59074;SDS011;44860;53.020;6.738;2023-11-19T04:55:35;49.00;;;8.15;;
59074;SDS011;44860;53.020;6.738;2023-11-19T04:58:00;51.72;;;7.90;;
59074;SDS011;44860;53.020;6.738;2023-11-19T05:00:26;45.28;;;7.63;;
59074;SDS011;44860;53.020;6.738;2023-11-19T05:02:52;43.95;;;7.60;;
59074;SDS011;44860;53.020;6.738;2023-11-19T05:05:17;41.63;;;7.45;;
59074;SDS011;44860;53.020;6.738;2023-11-19T05:07:43;43.58;;;8.32;;
59074;SDS011;44860;53.020;6.738;2023-11-19T05:10:09;42.47;;;6.97;;
59074;SDS011;44860;53.020;6.738;2023-11-19T05:12:35;41.22;;;7.72;;
59074;SDS011;44860;53.020;6.738;2023-11-19T05:15:00;39.65;;;7.80;;
59074;SDS011;44860;53.020;6.738;2023-11-19T05:17:26;44.17;;;7.72;;
59074;SDS011;44860;53.020;6.738;2023-11-19T05:19:52;37.67;;;6.90;;
59074;SDS011;44860;53.020;6.738;2023-11-19T05:22:17;49.60;;;8.77;;
59074;SDS011;44860;53.020;6.738;2023-11-19T05:24:43;48.67;;;8.95;;
59074;SDS011;44860;53.020;6.738;2023-11-19T05:27:09;54.13;;;8.85;;
59074;SDS011;44860;53.020;6.738;2023-11-19T05:29:36;44.88;;;7.55;;
59074;SDS011;44860;53.020;6.738;2023-11-19T05:32:04;42.88;;;6.85;;
59074;SDS011;44860;53.020;6.738;2023-11-19T05:34:30;49.35;;;7.90;;
59074;SDS011;44860;53.020;6.738;2023-11-19T05:36:56;48.58;;;8.30;;
59074;SDS011;44860;53.020;6.738;2023-11-19T05:39:22;44.05;;;7.32;;
59074;SDS011;44860;53.020;6.738;2023-11-19T05:41:49;44.60;;;8.13;;
59074;SDS011;44860;53.020;6.738;2023-11-19T05:44:15;46.78;;;8.45;;
59074;SDS011;44860;53.020;6.738;2023-11-19T05:46:41;39.80;;;7.13;;
59074;SDS011;44860;53.020;6.738;2023-11-19T05:49:11;42.00;;;7.10;;
59074;SDS011;44860;53.020;6.738;2023-11-19T05:51:40;52.35;;;8.50;;
59074;SDS011;44860;53.020;6.738;2023-11-19T05:54:09;43.30;;;7.22;;
59074;SDS011;44860;53.020;6.738;2023-11-19T05:56:35;40.63;;;7.45;;
59074;SDS011;44860;53.020;6.738;2023-11-19T05:59:01;38.70;;;7.07;;
59074;SDS011;44860;53.020;6.738;2023-11-19T06:01:39;41.92;;;8.23;;
59074;SDS011;44860;53.020;6.738;2023-11-19T06:04:06;41.83;;;7.70;;
59074;SDS011;44860;53.020;6.738;2023-11-19T06:06:32;41.50;;;7.65;;
59074;SDS011;44860;53.020;6.738;2023-11-19T06:08:58;47.42;;;8.82;;
59074;SDS011;44860;53.020;6.738;2023-11-19T06:11:24;45.30;;;8.20;;
59074;SDS011;44860;53.020;6.738;2023-11-19T06:13:52;43.50;;;8.30;;
59074;SDS011;44860;53.020;6.738;2023-11-19T06:16:17;46.25;;;7.05;;
59074;SDS011;44860;53.020;6.738;2023-11-19T06:18:43;42.30;;;8.00;;
59074;SDS011;44860;53.020;6.738;2023-11-19T06:21:09;43.65;;;7.72;;
59074;SDS011;44860;53.020;6.738;2023-11-19T06:23:35;47.00;;;8.43;;
59074;SDS011;44860;53.020;6.738;2023-11-19T06:26:01;46.03;;;8.40;;
59074;SDS011;44860;53.020;6.738;2023-11-19T06:28:27;44.78;;;8.52;;
59074;SDS011;44860;53.020;6.738;2023-11-19T06:30:52;46.40;;;8.90;;
59074;SDS011;44860;53.020;6.738;2023-11-19T06:33:18;41.45;;;8.27;;
59074;SDS011;44860;53.020;6.738;2023-11-19T06:35:44;47.30;;;7.63;;
59074;SDS011;44860;53.020;6.738;2023-11-19T06:38:10;42.67;;;7.88;;
59074;SDS011;44860;53.020;6.738;2023-11-19T06:40:36;48.60;;;7.50;;
59074;SDS011;44860;53.020;6.738;2023-11-19T06:43:01;40.20;;;7.95;;
59074;SDS011;44860;53.020;6.738;2023-11-19T06:45:33;41.40;;;8.15;;
59074;SDS011;44860;53.020;6.738;2023-11-19T06:48:02;48.70;;;8.20;;
59074;SDS011;44860;53.020;6.738;2023-11-19T06:50:29;44.10;;;7.60;;
59074;SDS011;44860;53.020;6.738;2023-11-19T06:52:55;46.15;;;7.65;;
59074;SDS011;44860;53.020;6.738;2023-11-19T06:55:20;42.65;;;8.38;;
59074;SDS011;44860;53.020;6.738;2023-11-19T06:57:46;45.05;;;8.35;;
59074;SDS011;44860;53.020;6.738;2023-11-19T07:00:11;42.85;;;7.70;;
59074;SDS011;44860;53.020;6.738;2023-11-19T07:02:37;46.25;;;7.82;;
59074;SDS011;44860;53.020;6.738;2023-11-19T07:05:04;47.72;;;7.45;;
59074;SDS011;44860;53.020;6.738;2023-11-19T07:07:31;44.60;;;7.88;;
59074;SDS011;44860;53.020;6.738;2023-11-19T07:09:58;43.50;;;7.90;;
59074;SDS011;44860;53.020;6.738;2023-11-19T07:12:23;43.67;;;7.63;;
59074;SDS011;44860;53.020;6.738;2023-11-19T07:14:51;45.88;;;7.85;;
59074;SDS011;44860;53.020;6.738;2023-11-19T07:17:18;40.70;;;8.07;;
59074;SDS011;44860;53.020;6.738;2023-11-19T07:19:45;43.17;;;8.07;;
59074;SDS011;44860;53.020;6.738;2023-11-19T07:22:17;40.08;;;7.28;;
59074;SDS011;44860;53.020;6.738;2023-11-19T07:24:42;41.00;;;7.20;;
59074;SDS011;44860;53.020;6.738;2023-11-19T07:27:08;41.92;;;7.63;;
59074;SDS011;44860;53.020;6.738;2023-11-19T07:29:34;37.10;;;7.43;;
59074;SDS011;44860;53.020;6.738;2023-11-19T07:32:00;49.05;;;7.65;;
59074;SDS011;44860;53.020;6.738;2023-11-19T07:34:30;39.83;;;7.25;;
59074;SDS011;44860;53.020;6.738;2023-11-19T07:36:55;45.58;;;8.20;;
59074;SDS011;44860;53.020;6.738;2023-11-19T07:39:24;50.75;;;7.90;;
59074;SDS011;44860;53.020;6.738;2023-11-19T07:41:50;47.33;;;8.18;;
59074;SDS011;44860;53.020;6.738;2023-11-19T07:44:15;48.08;;;7.68;;
59074;SDS011;44860;53.020;6.738;2023-11-19T07:46:41;41.95;;;8.13;;
59074;SDS011;44860;53.020;6.738;2023-11-19T07:49:10;43.92;;;7.97;;
59074;SDS011;44860;53.020;6.738;2023-11-19T07:51:36;42.05;;;7.35;;
59074;SDS011;44860;53.020;6.738;2023-11-19T07:54:01;40.50;;;7.07;;
59074;SDS011;44860;53.020;6.738;2023-11-19T07:56:27;48.15;;;7.85;;
59074;SDS011;44860;53.020;6.738;2023-11-19T07:58:53;41.13;;;7.30;;
59074;SDS011;44860;53.020;6.738;2023-11-19T08:01:19;45.92;;;7.88;;
59074;SDS011;44860;53.020;6.738;2023-11-19T08:03:44;35.42;;;6.97;;
59074;SDS011;44860;53.020;6.738;2023-11-19T08:06:10;38.42;;;7.18;;
59074;SDS011;44860;53.020;6.738;2023-11-19T08:08:36;42.42;;;7.57;;
59074;SDS011;44860;53.020;6.738;2023-11-19T08:11:03;42.67;;;7.97;;
59074;SDS011;44860;53.020;6.738;2023-11-19T08:13:30;45.53;;;8.90;;
59074;SDS011;44860;53.020;6.738;2023-11-19T08:15:57;52.03;;;9.50;;
59074;SDS011;44860;53.020;6.738;2023-11-19T08:18:23;42.03;;;8.25;;
59074;SDS011;44860;53.020;6.738;2023-11-19T08:20:49;44.88;;;7.55;;
59074;SDS011;44860;53.020;6.738;2023-11-19T08:23:18;47.42;;;7.82;;
59074;SDS011;44860;53.020;6.738;2023-11-19T08:25:44;46.13;;;7.85;;
59074;SDS011;44860;53.020;6.738;2023-11-19T08:28:10;43.97;;;8.07;;
59074;SDS011;44860;53.020;6.738;2023-11-19T08:30:35;43.88;;;9.05;;
59074;SDS011;44860;53.020;6.738;2023-11-19T08:33:01;52.63;;;8.10;;
59074;SDS011;44860;53.020;6.738;2023-11-19T08:35:31;45.67;;;7.20;;
59074;SDS011;44860;53.020;6.738;2023-11-19T08:37:57;41.50;;;7.68;;
59074;SDS011;44860;53.020;6.738;2023-11-19T08:40:24;52.05;;;8.05;;
59074;SDS011;44860;53.020;6.738;2023-11-19T08:42:51;42.42;;;7.88;;
59074;SDS011;44860;53.020;6.738;2023-11-19T08:45:16;45.10;;;7.75;;
59074;SDS011;44860;53.020;6.738;2023-11-19T08:47:42;44.40;;;7.18;;
59074;SDS011;44860;53.020;6.738;2023-11-19T08:50:10;42.03;;;8.40;;
59074;SDS011;44860;53.020;6.738;2023-11-19T08:52:36;41.70;;;7.72;;
59074;SDS011;44860;53.020;6.738;2023-11-19T08:55:02;53.15;;;9.55;;
59074;SDS011;44860;53.020;6.738;2023-11-19T08:57:30;41.88;;;8.20;;
59074;SDS011;44860;53.020;6.738;2023-11-19T08:59:56;42.60;;;7.93;;
59074;SDS011;44860;53.020;6.738;2023-11-19T09:02:22;42.67;;;7.28;;
59074;SDS011;44860;53.020;6.738;2023-11-19T09:04:47;49.22;;;7.68;;
59074;SDS011;44860;53.020;6.738;2023-11-19T09:07:13;36.67;;;6.63;;
59074;SDS011;44860;53.020;6.738;2023-11-19T09:09:38;49.22;;;11.85;;
59074;SDS011;44860;53.020;6.738;2023-11-19T09:12:05;40.97;;;7.75;;
59074;SDS011;44860;53.020;6.738;2023-11-19T09:14:31;51.92;;;7.70;;
59074;SDS011;44860;53.020;6.738;2023-11-19T09:16:56;44.33;;;7.93;;
59074;SDS011;44860;53.020;6.738;2023-11-19T09:19:23;42.88;;;8.63;;
59074;SDS011;44860;53.020;6.738;2023-11-19T09:21:49;42.72;;;8.02;;
59074;SDS011;44860;53.020;6.738;2023-11-19T09:24:15;51.13;;;7.65;;
59074;SDS011;44860;53.020;6.738;2023-11-19T09:26:41;46.13;;;7.45;;
59074;SDS011;44860;53.020;6.738;2023-11-19T09:29:07;47.88;;;7.50;;
59074;SDS011;44860;53.020;6.738;2023-11-19T09:31:33;45.53;;;7.28;;
59074;SDS011;44860;53.020;6.738;2023-11-19T09:33:59;43.25;;;7.60;;
59074;SDS011;44860;53.020;6.738;2023-11-19T09:36:25;40.50;;;7.20;;
59074;SDS011;44860;53.020;6.738;2023-11-19T09:38:51;47.30;;;8.68;;
59074;SDS011;44860;53.020;6.738;2023-11-19T09:41:17;47.17;;;8.95;;
59074;SDS011;44860;53.020;6.738;2023-11-19T09:43:44;45.90;;;8.07;;
59074;SDS011;44860;53.020;6.738;2023-11-19T09:46:10;44.13;;;7.30;;
59074;SDS011;44860;53.020;6.738;2023-11-19T09:48:40;46.13;;;8.13;;
59074;SDS011;44860;53.020;6.738;2023-11-19T09:51:07;44.40;;;7.50;;
59074;SDS011;44860;53.020;6.738;2023-11-19T09:53:34;48.65;;;9.27;;
59074;SDS011;44860;53.020;6.738;2023-11-19T09:56:04;44.67;;;8.35;;
59074;SDS011;44860;53.020;6.738;2023-11-19T09:58:31;41.15;;;7.30;;
59074;SDS011;44860;53.020;6.738;2023-11-19T10:00:57;46.13;;;8.68;;
59074;SDS011;44860;53.020;6.738;2023-11-19T10:03:24;45.85;;;7.60;;
59074;SDS011;44860;53.020;6.738;2023-11-19T10:06:02;41.63;;;7.10;;
59074;SDS011;44860;53.020;6.738;2023-11-19T10:08:29;102.40;;;9.13;;
59074;SDS011;44860;53.020;6.738;2023-11-19T10:10:55;44.90;;;7.68;;
59074;SDS011;44860;53.020;6.738;2023-11-19T10:13:25;40.08;;;7.63;;
59074;SDS011;44860;53.020;6.738;2023-11-19T10:15:52;40.03;;;7.90;;
59074;SDS011;44860;53.020;6.738;2023-11-19T10:18:18;41.22;;;7.10;;
59074;SDS011;44860;53.020;6.738;2023-11-19T10:20:48;46.17;;;7.70;;
59074;SDS011;44860;53.020;6.738;2023-11-19T10:23:14;38.20;;;7.47;;
59074;SDS011;44860;53.020;6.738;2023-11-19T10:25:40;46.85;;;7.57;;
59074;SDS011;44860;53.020;6.738;2023-11-19T10:28:05;43.13;;;6.82;;
59074;SDS011;44860;53.020;6.738;2023-11-19T10:30:31;44.40;;;7.45;;
59074;SDS011;44860;53.020;6.738;2023-11-19T10:33:08;37.58;;;7.38;;
59074;SDS011;44860;53.020;6.738;2023-11-19T10:35:51;41.78;;;7.28;;
59074;SDS011;44860;53.020;6.738;2023-11-19T10:38:23;44.40;;;7.07;;
59074;SDS011;44860;53.020;6.738;2023-11-19T10:40:50;40.20;;;7.22;;
59074;SDS011;44860;53.020;6.738;2023-11-19T10:43:21;49.15;;;8.57;;
59074;SDS011;44860;53.020;6.738;2023-11-19T10:45:48;43.72;;;6.88;;
59074;SDS011;44860;53.020;6.738;2023-11-19T10:48:14;43.67;;;6.93;;
59074;SDS011;44860;53.020;6.738;2023-11-19T10:50:41;37.97;;;6.88;;
59074;SDS011;44860;53.020;6.738;2023-11-19T10:53:09;32.75;;;6.28;;
59074;SDS011;44860;53.020;6.738;2023-11-19T10:55:36;38.80;;;6.25;;
59074;SDS011;44860;53.020;6.738;2023-11-19T10:58:06;33.30;;;6.05;;
59074;SDS011;44860;53.020;6.738;2023-11-19T11:00:43;39.35;;;6.30;;
59074;SDS011;44860;53.020;6.738;2023-11-19T11:03:24;34.05;;;5.85;;
59074;SDS011;44860;53.020;6.738;2023-11-19T11:05:51;35.33;;;6.38;;
59074;SDS011;44860;53.020;6.738;2023-11-19T11:08:18;31.92;;;6.00;;
59074;SDS011;44860;53.020;6.738;2023-11-19T11:10:55;32.85;;;6.78;;
59074;SDS011;44860;53.020;6.738;2023-11-19T11:13:24;32.30;;;6.15;;
59074;SDS011;44860;53.020;6.738;2023-11-19T11:15:52;36.60;;;6.30;;
59074;SDS011;44860;53.020;6.738;2023-11-19T11:18:21;33.50;;;5.93;;
59074;SDS011;44860;53.020;6.738;2023-11-19T11:20:48;40.50;;;6.90;;
59074;SDS011;44860;53.020;6.738;2023-11-19T11:36:51;39.35;;;7.50;;
59074;SDS011;44860;53.020;6.738;2023-11-19T11:39:22;44.40;;;8.10;;
59074;SDS011;44860;53.020;6.738;2023-11-19T11:42:36;35.97;;;7.28;;
59074;SDS011;44860;53.020;6.738;2023-11-19T11:48:03;46.70;;;7.93;;
59074;SDS011;44860;53.020;6.738;2023-11-19T11:50:24;37.20;;;7.20;;
59074;SDS011;44860;53.020;6.738;2023-11-19T11:55:35;41.03;;;8.02;;
59074;SDS011;44860;53.020;6.738;2023-11-19T11:58:02;42.47;;;7.72;;
59074;SDS011;44860;53.020;6.738;2023-11-19T12:02:56;42.10;;;6.88;;
59074;SDS011;44860;53.020;6.738;2023-11-19T12:05:24;46.00;;;7.85;;
59074;SDS011;44860;53.020;6.738;2023-11-19T12:07:56;37.55;;;6.85;;
59074;SDS011;44860;53.020;6.738;2023-11-19T12:10:26;36.50;;;6.70;;
59074;SDS011;44860;53.020;6.738;2023-11-19T12:12:59;44.38;;;6.63;;
59074;SDS011;44860;53.020;6.738;2023-11-19T12:15:26;41.08;;;6.90;;
59074;SDS011;44860;53.020;6.738;2023-11-19T12:17:52;43.70;;;8.15;;
59074;SDS011;44860;53.020;6.738;2023-11-19T12:20:22;39.10;;;6.72;;
59074;SDS011;44860;53.020;6.738;2023-11-19T12:22:49;47.05;;;7.15;;
59074;SDS011;44860;53.020;6.738;2023-11-19T12:25:16;40.88;;;7.38;;
59074;SDS011;44860;53.020;6.738;2023-11-19T12:27:46;49.15;;;7.20;;
59074;SDS011;44860;53.020;6.738;2023-11-19T12:30:23;42.47;;;8.00;;
59074;SDS011;44860;53.020;6.738;2023-11-19T12:32:49;37.90;;;8.10;;
59074;SDS011;44860;53.020;6.738;2023-11-19T12:35:15;40.40;;;8.38;;
59074;SDS011;44860;53.020;6.738;2023-11-19T12:37:48;41.80;;;7.50;;
59074;SDS011;44860;53.020;6.738;2023-11-19T12:40:19;36.28;;;7.10;;
59074;SDS011;44860;53.020;6.738;2023-11-19T12:42:50;41.15;;;8.48;;
59074;SDS011;44860;53.020;6.738;2023-11-19T12:45:17;43.35;;;7.47;;
59074;SDS011;44860;53.020;6.738;2023-11-19T12:47:44;40.72;;;7.07;;
59074;SDS011;44860;53.020;6.738;2023-11-19T12:50:12;43.17;;;6.93;;
59074;SDS011;44860;53.020;6.738;2023-11-19T12:52:38;44.75;;;7.55;;
59074;SDS011;44860;53.020;6.738;2023-11-19T12:55:04;39.47;;;7.18;;
59074;SDS011;44860;53.020;6.738;2023-11-19T12:57:54;37.90;;;6.68;;
59074;SDS011;44860;53.020;6.738;2023-11-19T13:00:21;40.40;;;7.10;;
59074;SDS011;44860;53.020;6.738;2023-11-19T13:02:49;33.92;;;6.53;;
59074;SDS011;44860;53.020;6.738;2023-11-19T13:05:22;33.42;;;7.00;;
59074;SDS011;44860;53.020;6.738;2023-11-19T13:07:49;36.20;;;7.32;;
59074;SDS011;44860;53.020;6.738;2023-11-19T13:10:15;39.65;;;7.93;;
59074;SDS011;44860;53.020;6.738;2023-11-19T13:12:40;35.22;;;6.93;;
59074;SDS011;44860;53.020;6.738;2023-11-19T13:15:06;42.70;;;7.85;;
59074;SDS011;44860;53.020;6.738;2023-11-19T13:17:47;42.20;;;8.23;;
59074;SDS011;44860;53.020;6.738;2023-11-19T13:20:12;36.92;;;7.72;;
59074;SDS011;44860;53.020;6.738;2023-11-19T13:22:53;36.60;;;7.43;;
59074;SDS011;44860;53.020;6.738;2023-11-19T13:25:22;32.63;;;6.65;;
59074;SDS011;44860;53.020;6.738;2023-11-19T13:27:48;38.92;;;7.65;;
59074;SDS011;44860;53.020;6.738;2023-11-19T13:30:14;36.13;;;6.65;;
59074;SDS011;44860;53.020;6.738;2023-11-19T13:32:40;35.13;;;6.63;;
59074;SDS011;44860;53.020;6.738;2023-11-19T13:35:06;36.95;;;6.82;;
59074;SDS011;44860;53.020;6.738;2023-11-19T13:37:34;32.67;;;6.53;;
59074;SDS011;44860;53.020;6.738;2023-11-19T13:40:00;32.10;;;6.80;;
59074;SDS011;44860;53.020;6.738;2023-11-19T13:42:26;39.15;;;7.10;;
59074;SDS011;44860;53.020;6.738;2023-11-19T13:44:52;33.88;;;6.20;;
59074;SDS011;44860;53.020;6.738;2023-11-19T13:47:18;34.92;;;6.15;;
59074;SDS011;44860;53.020;6.738;2023-11-19T13:49:46;33.13;;;5.93;;
59074;SDS011;44860;53.020;6.738;2023-11-19T13:52:12;38.90;;;6.25;;
59074;SDS011;44860;53.020;6.738;2023-11-19T13:54:38;35.47;;;7.13;;
59074;SDS011;44860;53.020;6.738;2023-11-19T13:57:03;34.97;;;6.65;;
59074;SDS011;44860;53.020;6.738;2023-11-19T13:59:30;35.28;;;7.30;;
59074;SDS011;44860;53.020;6.738;2023-11-19T14:01:57;34.20;;;6.72;;
59074;SDS011;44860;53.020;6.738;2023-11-19T14:04:23;39.30;;;7.05;;
59074;SDS011;44860;53.020;6.738;2023-11-19T14:06:49;32.60;;;6.40;;
59074;SDS011;44860;53.020;6.738;2023-11-19T14:09:15;35.22;;;7.30;;
59074;SDS011;44860;53.020;6.738;2023-11-19T14:11:41;35.55;;;6.25;;
59074;SDS011;44860;53.020;6.738;2023-11-19T14:14:07;36.03;;;6.32;;
59074;SDS011;44860;53.020;6.738;2023-11-19T14:16:33;35.17;;;6.10;;
59074;SDS011;44860;53.020;6.738;2023-11-19T14:18:59;40.10;;;6.70;;
59074;SDS011;44860;53.020;6.738;2023-11-19T14:21:25;34.30;;;6.70;;
59074;SDS011;44860;53.020;6.738;2023-11-19T14:23:51;33.92;;;6.72;;
59074;SDS011;44860;53.020;6.738;2023-11-19T14:26:18;39.38;;;6.82;;
59074;SDS011;44860;53.020;6.738;2023-11-19T14:28:44;34.28;;;6.22;;
59074;SDS011;44860;53.020;6.738;2023-11-19T14:31:09;39.10;;;6.22;;
59074;SDS011;44860;53.020;6.738;2023-11-19T14:33:35;34.65;;;6.80;;
59074;SDS011;44860;53.020;6.738;2023-11-19T14:36:03;34.63;;;6.70;;
59074;SDS011;44860;53.020;6.738;2023-11-19T14:38:29;39.55;;;7.38;;
59074;SDS011;44860;53.020;6.738;2023-11-19T14:40:55;35.35;;;7.72;;
59074;SDS011;44860;53.020;6.738;2023-11-19T14:43:20;32.10;;;6.45;;
59074;SDS011;44860;53.020;6.738;2023-11-19T14:45:46;34.38;;;6.30;;
59074;SDS011;44860;53.020;6.738;2023-11-19T14:48:12;30.00;;;5.93;;
59074;SDS011;44860;53.020;6.738;2023-11-19T14:50:37;38.78;;;6.93;;
59074;SDS011;44860;53.020;6.738;2023-11-19T14:53:03;40.90;;;6.78;;
59074;SDS011;44860;53.020;6.738;2023-11-19T14:55:29;31.42;;;6.05;;
59074;SDS011;44860;53.020;6.738;2023-11-19T14:57:54;35.03;;;6.25;;
59074;SDS011;44860;53.020;6.738;2023-11-19T15:00:21;30.73;;;6.43;;